createdAt,value
2023-01-13T00:00:03.468Z,32.90
2023-01-13T00:02:38.873Z,31.10
2023-01-13T00:05:06.451Z,33.10
2023-01-13T00:07:33.483Z,28.30
2023-01-13T00:10:00.612Z,34.50
2023-01-13T00:12:27.820Z,30.70
2023-01-13T00:14:54.822Z,25.20
2023-01-13T00:17:22.807Z,29.90
2023-01-13T00:19:50.149Z,34.00
2023-01-13T00:22:17.210Z,33.90
2023-01-13T00:24:44.332Z,32.70
2023-01-13T00:27:11.425Z,33.20
2023-01-13T00:29:38.540Z,37.50
2023-01-13T00:32:05.588Z,32.90
2023-01-13T00:34:32.693Z,31.30
2023-01-13T00:36:59.685Z,30.60
2023-01-13T00:39:26.783Z,33.80
2023-01-13T00:42:12.313Z,27.10
2023-01-13T00:44:39.402Z,30.60
2023-01-13T00:47:06.413Z,30.10
2023-01-13T00:49:33.532Z,25.40
2023-01-13T00:52:00.622Z,26.20
2023-01-13T00:54:27.610Z,32.00
2023-01-13T00:56:54.734Z,29.80
2023-01-13T00:59:21.837Z,25.90
2023-01-13T01:01:49.116Z,27.30
2023-01-13T01:04:16.453Z,33.60
2023-01-13T01:06:43.609Z,29.60
2023-01-13T01:09:15.514Z,35.10
2023-01-13T01:11:42.856Z,32.50
2023-01-13T01:14:11.462Z,31.70
2023-01-13T01:16:38.704Z,29.60
2023-01-13T01:19:06.136Z,24.10
2023-01-13T01:21:33.453Z,28.40
2023-01-13T01:24:01.571Z,34.20
2023-01-13T01:26:29.303Z,24.20
2023-01-13T01:28:56.385Z,28.10
2023-01-13T01:31:28.266Z,27.70
2023-01-13T01:33:55.721Z,28.90
2023-01-13T01:36:23.592Z,30.00
2023-01-13T01:38:50.578Z,25.70
2023-01-13T01:41:20.025Z,23.30
2023-01-13T01:44:00.292Z,25.00
2023-01-13T01:46:38.849Z,31.20
2023-01-13T01:49:05.896Z,27.90
2023-01-13T01:51:38.407Z,31.80
2023-01-13T01:54:06.176Z,31.00
2023-01-13T01:56:33.946Z,25.90
2023-01-13T01:59:01.105Z,33.00
2023-01-13T02:01:28.463Z,30.50
2023-01-13T02:04:02.044Z,32.90
2023-01-13T02:06:29.348Z,26.90
2023-01-13T02:08:57.077Z,27.90
2023-01-13T02:11:52.881Z,30.40
2023-01-13T02:14:23.959Z,31.60
2023-01-13T02:17:16.593Z,31.90
2023-01-13T02:20:11.302Z,27.70
2023-01-13T02:22:56.575Z,23.90
2023-01-13T02:25:23.565Z,26.70
2023-01-13T02:28:18.451Z,27.30
2023-01-13T02:31:23.960Z,31.90
2023-01-13T02:34:01.899Z,23.90
2023-01-13T02:36:56.324Z,28.10
2023-01-13T02:39:41.939Z,22.60
2023-01-13T02:42:29.515Z,26.80
2023-01-13T02:45:21.622Z,26.20
2023-01-13T02:47:50.264Z,29.00
2023-01-13T02:50:20.913Z,24.90
2023-01-13T02:53:01.678Z,25.60
2023-01-13T02:55:37.654Z,23.90
2023-01-13T02:58:06.083Z,25.00
2023-01-13T03:00:33.538Z,28.00
2023-01-13T03:03:01.611Z,26.00
2023-01-13T03:05:28.710Z,23.90
2023-01-13T03:08:15.605Z,23.10
2023-01-13T03:11:01.543Z,27.60
2023-01-13T03:13:56.815Z,25.00
2023-01-13T03:16:47.351Z,29.00
2023-01-13T03:19:35.288Z,35.50
2023-01-13T03:24:56.791Z,30.30
2023-01-13T03:27:32.401Z,29.50
2023-01-13T03:30:03.878Z,24.60
2023-01-13T03:32:35.065Z,27.90
2023-01-13T03:35:09.970Z,32.60
2023-01-13T03:37:39.894Z,33.70
2023-01-13T03:40:10.338Z,26.90
2023-01-13T03:42:37.748Z,30.60
2023-01-13T03:45:13.156Z,29.90
2023-01-13T03:47:45.793Z,31.00
2023-01-13T03:50:19.638Z,35.20
2023-01-13T03:52:49.208Z,39.50
2023-01-13T03:55:21.167Z,30.90
2023-01-13T03:57:59.678Z,37.30
2023-01-13T04:00:30.096Z,40.80
2023-01-13T04:03:00.356Z,37.70
2023-01-13T04:05:27.237Z,39.70
2023-01-13T04:08:16.936Z,31.20
2023-01-13T04:11:22.703Z,32.70
2023-01-13T04:13:49.857Z,32.50
2023-01-13T04:16:16.835Z,32.20
2023-01-13T04:18:43.773Z,32.00
2023-01-13T04:21:10.783Z,36.20
2023-01-13T04:23:37.786Z,36.50
2023-01-13T04:26:04.784Z,32.90
2023-01-13T04:28:33.460Z,35.20
2023-01-13T04:31:00.958Z,36.50
2023-01-13T04:33:28.243Z,32.30
2023-01-13T04:35:55.322Z,28.60
2023-01-13T04:38:22.632Z,37.80
2023-01-13T04:40:49.707Z,31.20
2023-01-13T04:43:16.840Z,31.50
2023-01-13T04:45:43.907Z,32.50
2023-01-13T04:48:11.100Z,32.90
2023-01-13T04:50:38.147Z,38.90
2023-01-13T04:53:05.784Z,31.50
2023-01-13T04:55:32.794Z,42.50
2023-01-13T04:58:06.751Z,40.80
2023-01-13T05:00:34.767Z,37.90
2023-01-13T05:03:01.846Z,32.90
2023-01-13T05:05:29.247Z,39.20
2023-01-13T05:07:56.139Z,39.20
2023-01-13T05:10:24.087Z,35.30
2023-01-13T05:13:09.605Z,42.60
2023-01-13T05:15:55.215Z,42.20
2023-01-13T05:18:22.269Z,37.80
2023-01-13T05:20:49.917Z,40.10
2023-01-13T05:23:35.468Z,40.50
2023-01-13T05:26:02.424Z,37.00
2023-01-13T05:28:33.361Z,35.50
2023-01-13T05:31:01.174Z,37.50
2023-01-13T05:33:28.273Z,39.40
2023-01-13T05:35:55.303Z,41.80
2023-01-13T05:38:22.271Z,43.20
2023-01-13T05:41:07.708Z,42.80
2023-01-13T05:43:34.948Z,37.20
2023-01-13T05:46:07.969Z,39.90
2023-01-13T05:48:40.126Z,35.20
2023-01-13T05:51:11.479Z,39.80
2023-01-13T05:53:40.679Z,43.10
2023-01-13T05:56:08.308Z,33.50
2023-01-13T05:58:35.444Z,40.40
2023-01-13T06:01:03.998Z,34.80
2023-01-13T06:03:31.006Z,38.50
2023-01-13T06:06:02.138Z,39.20
2023-01-13T06:08:29.519Z,33.10
2023-01-13T06:10:56.531Z,35.00
2023-01-13T06:13:25.305Z,33.30
2023-01-13T06:15:55.722Z,36.80
2023-01-13T06:18:24.076Z,35.90
2023-01-13T06:20:51.037Z,32.70
2023-01-13T06:23:19.105Z,31.20
2023-01-13T06:25:55.246Z,29.60
2023-01-13T06:28:22.185Z,35.10
2023-01-13T06:30:49.970Z,34.20
2023-01-13T06:33:19.766Z,40.90
2023-01-13T06:35:50.548Z,29.00
2023-01-13T06:38:17.576Z,34.70
2023-01-13T06:40:44.649Z,35.00
2023-01-13T06:43:17.699Z,36.10
2023-01-13T06:45:47.416Z,33.50
2023-01-13T06:48:14.785Z,35.70
2023-01-13T06:50:42.333Z,33.80
2023-01-13T06:53:10.074Z,32.50
2023-01-13T06:55:37.265Z,39.60
2023-01-13T06:58:04.193Z,36.40
2023-01-13T07:00:32.634Z,39.90
2023-01-13T07:03:13.807Z,34.40
2023-01-13T07:05:43.129Z,34.90
2023-01-13T07:08:10.310Z,33.00
2023-01-13T07:10:37.531Z,37.00
2023-01-13T07:13:23.541Z,35.80
2023-01-13T07:15:57.524Z,35.30
2023-01-13T07:18:24.641Z,39.00
2023-01-13T07:20:53.467Z,36.50
2023-01-13T07:23:20.538Z,38.90
2023-01-13T07:25:47.501Z,34.40
2023-01-13T07:28:14.512Z,41.50
2023-01-13T07:30:41.453Z,40.90
2023-01-13T07:33:08.384Z,34.10
2023-01-13T07:35:35.583Z,40.60
2023-01-13T07:38:02.580Z,34.40
2023-01-13T07:40:29.563Z,42.80
2023-01-13T07:43:15.078Z,39.50
2023-01-13T07:45:42.098Z,39.00
2023-01-13T07:48:09.085Z,38.00
2023-01-13T07:50:36.040Z,41.80
2023-01-13T07:53:03.040Z,43.40
2023-01-13T07:55:30.001Z,44.40
2023-01-13T07:57:56.923Z,43.70
2023-01-13T08:00:23.983Z,41.30
2023-01-13T08:02:51.100Z,45.20
2023-01-13T08:05:18.256Z,45.30
2023-01-13T08:07:45.423Z,46.10
2023-01-13T08:10:12.441Z,48.10
2023-01-13T08:12:57.946Z,47.60
2023-01-13T08:15:25.091Z,48.50
2023-01-13T08:17:51.978Z,50.60
2023-01-13T08:20:19.339Z,52.70
2023-01-13T08:22:46.467Z,65.10
2023-01-13T08:25:13.492Z,54.80
2023-01-13T08:27:40.632Z,51.60
2023-01-13T08:30:08.598Z,49.60
2023-01-13T08:32:35.839Z,46.40
2023-01-13T08:35:02.764Z,53.10
2023-01-13T12:35:05.276Z,57.20
2023-01-13T12:37:42.894Z,52.00
2023-01-13T12:40:42.479Z,41.10
2023-01-13T12:43:37.761Z,33.00
2023-01-13T12:46:21.550Z,33.80
2023-01-13T12:48:54.849Z,33.80
2023-01-13T12:51:45.584Z,29.40
2023-01-13T12:54:31.117Z,29.60
2023-01-13T12:56:58.916Z,31.10
2023-01-13T12:59:25.939Z,29.00
2023-01-13T13:02:11.594Z,32.10
2023-01-13T13:04:51.971Z,30.50
2023-01-13T13:07:20.416Z,26.80
2023-01-13T13:09:53.403Z,28.70
2023-01-13T13:13:02.372Z,27.40
2023-01-13T13:15:30.061Z,31.70
2023-01-13T13:18:00.298Z,27.40
2023-01-13T13:21:04.521Z,27.80
2023-01-13T13:24:04.176Z,31.20
2023-01-13T13:26:36.550Z,35.20
2023-01-13T13:29:37.795Z,53.50
2023-01-13T13:32:23.071Z,46.60
2023-01-13T13:34:53.090Z,34.80
2023-01-13T13:37:55.349Z,33.40
2023-01-13T13:40:42.717Z,32.40
2023-01-13T13:43:31.165Z,33.40
2023-01-13T13:46:16.864Z,33.90
2023-01-13T13:48:54.416Z,37.90
2023-01-13T13:51:27.393Z,35.60
2023-01-13T13:53:55.993Z,33.40
2023-01-13T13:56:24.437Z,35.30
2023-01-13T13:58:52.330Z,35.30
2023-01-13T14:01:27.969Z,35.80
2023-01-13T14:04:18.567Z,32.00
2023-01-13T14:07:16.314Z,37.20
2023-01-13T14:09:45.430Z,35.60
2023-01-13T14:12:18.818Z,32.80
2023-01-13T14:14:46.545Z,33.50
2023-01-13T14:17:26.512Z,33.80
2023-01-13T14:20:09.642Z,33.80
2023-01-13T14:22:36.703Z,31.40
2023-01-13T14:25:21.015Z,36.90
2023-01-13T14:27:48.027Z,30.70
2023-01-13T14:30:15.923Z,30.70
2023-01-13T14:32:42.842Z,33.30
2023-01-13T14:35:10.728Z,31.10
2023-01-13T14:37:39.564Z,34.30
2023-01-13T14:40:06.899Z,33.10
2023-01-13T14:42:35.658Z,35.00
2023-01-13T14:45:03.349Z,36.50
2023-01-13T14:47:33.725Z,31.50
2023-01-13T14:50:22.047Z,34.10
2023-01-13T14:52:50.701Z,32.60
2023-01-13T14:55:34.559Z,38.00
2023-01-13T14:58:20.511Z,35.70
2023-01-13T15:00:48.203Z,34.20
2023-01-13T15:03:16.305Z,30.30
2023-01-13T15:05:48.382Z,32.30
2023-01-13T15:08:17.094Z,37.20
2023-01-13T15:10:54.580Z,33.90
2023-01-13T15:13:43.347Z,33.90
2023-01-13T15:16:21.451Z,36.10
2023-01-13T15:18:48.554Z,35.80
2023-01-13T15:21:18.239Z,40.20
2023-01-13T15:23:47.321Z,34.30
2023-01-13T15:26:24.856Z,34.30
2023-01-13T15:28:52.269Z,37.50
2023-01-13T15:31:19.366Z,37.00
2023-01-13T15:33:46.388Z,36.70
2023-01-13T15:36:23.731Z,36.40
2023-01-13T15:38:50.776Z,33.90
2023-01-13T15:41:17.798Z,40.00
2023-01-13T15:44:03.415Z,33.70
2023-01-13T15:46:39.535Z,35.10
2023-01-13T15:49:37.222Z,34.30
2023-01-13T15:52:05.485Z,33.90
2023-01-13T15:54:32.500Z,34.00
2023-01-13T15:56:59.561Z,34.90
2023-01-13T15:59:27.263Z,35.60
2023-01-13T21:16:58.890Z,71.10
2023-01-13T21:19:26.145Z,65.70
2023-01-13T21:21:53.097Z,59.50
2023-01-13T21:24:20.102Z,52.60
2023-01-13T21:26:49.769Z,39.20
2023-01-13T21:29:16.711Z,38.70
2023-01-13T21:31:43.896Z,44.30
2023-01-13T21:34:11.694Z,44.00
2023-01-13T21:36:38.738Z,39.40
2023-01-13T21:39:05.844Z,37.40
2023-01-13T21:41:51.787Z,37.60
2023-01-13T21:44:38.919Z,37.90
2023-01-13T21:47:35.168Z,37.80
2023-01-13T21:50:02.615Z,40.70
2023-01-13T21:52:29.734Z,37.40
2023-01-13T21:55:15.462Z,34.60
2023-01-13T21:57:53.236Z,40.10
2023-01-13T22:00:21.332Z,38.90
2023-01-13T22:02:48.537Z,37.80
2023-01-13T22:05:17.143Z,35.80
2023-01-13T22:07:44.226Z,37.30
2023-01-13T22:10:15.567Z,36.70
2023-01-13T22:12:43.594Z,35.80
2023-01-13T22:15:11.906Z,36.10
2023-01-13T22:17:40.049Z,33.20
2023-01-13T22:20:08.002Z,33.20
2023-01-13T22:22:37.081Z,41.10
2023-01-13T22:25:06.956Z,38.40
2023-01-13T22:27:39.391Z,37.50
2023-01-13T22:30:18.179Z,32.90
2023-01-13T22:32:45.959Z,38.50
2023-01-13T22:35:13.815Z,40.50
2023-01-13T22:37:41.150Z,36.10
2023-01-13T22:40:09.669Z,36.50
2023-01-13T22:42:40.573Z,38.50
2023-01-13T22:45:09.907Z,39.40
2023-01-13T22:47:37.074Z,39.70
2023-01-13T22:50:04.583Z,35.30
2023-01-13T22:52:32.794Z,37.00
2023-01-13T22:55:00.975Z,38.90
2023-01-13T22:57:36.026Z,39.60
2023-01-13T23:00:10.470Z,37.00
2023-01-13T23:02:40.307Z,41.60
2023-01-13T23:05:07.521Z,38.20
2023-01-13T23:07:35.581Z,36.70
2023-01-13T23:10:03.206Z,41.40
2023-01-13T23:12:30.069Z,36.90
2023-01-13T23:14:57.221Z,39.20
2023-01-13T23:17:24.236Z,37.30
2023-01-13T23:19:51.142Z,39.80
2023-01-13T23:22:18.354Z,37.70
2023-01-13T23:24:45.776Z,42.10
2023-01-13T23:27:12.664Z,35.80
2023-01-13T23:29:39.908Z,42.20
2023-01-13T23:32:06.934Z,41.10
2023-01-13T23:34:33.845Z,40.20
2023-01-13T23:37:00.957Z,37.50
2023-01-13T23:39:27.968Z,35.60
2023-01-13T23:41:55.003Z,38.80
2023-01-13T23:44:22.215Z,38.00
2023-01-13T23:46:49.158Z,39.80
2023-01-13T23:49:16.063Z,37.10
2023-01-13T23:51:43.254Z,37.40
2023-01-13T23:54:10.143Z,35.10
2023-01-13T23:56:39.579Z,34.70
2023-01-13T23:59:06.974Z,36.10
